createdAt,value
2023-02-23T18:50:39.185Z,19.60
2023-02-23T18:51:39.820Z,20.40
2023-02-23T18:52:39.048Z,28.70
2023-02-23T18:54:38.942Z,26.60
2023-02-23T18:56:38.844Z,41.60
2023-02-23T18:57:38.794Z,62.80
2023-02-23T18:58:38.746Z,46.60
2023-02-23T18:59:38.699Z,26.10
2023-02-23T19:00:38.709Z,48.60
2023-02-23T19:01:38.599Z,54.00
2023-02-23T19:02:38.569Z,58.50
2023-02-23T19:03:38.507Z,59.90
2023-02-23T19:04:38.478Z,49.90
2023-02-23T19:05:38.419Z,50.30
2023-02-23T19:06:38.392Z,47.70
2023-02-23T19:07:38.316Z,34.20
2023-02-23T19:08:38.274Z,32.80
2023-02-23T19:09:38.222Z,27.50
2023-02-23T19:10:38.181Z,26.90
2023-02-23T19:11:38.134Z,26.00
2023-02-23T19:12:38.086Z,26.30
2023-02-23T19:13:38.107Z,22.50
2023-02-23T19:14:49.196Z,23.90
2023-02-23T19:15:37.942Z,23.70
2023-02-23T19:16:37.918Z,26.90
2023-02-23T19:17:37.850Z,27.80
2023-02-23T19:18:37.846Z,25.90
2023-02-23T19:19:37.764Z,26.00
2023-02-23T19:20:37.715Z,27.60
2023-02-23T19:21:37.685Z,26.30
2023-02-23T19:22:37.653Z,26.20
2023-02-23T19:23:37.581Z,25.10
2023-02-23T19:24:38.190Z,24.40
2023-02-23T19:25:37.499Z,23.20
2023-02-23T19:26:37.466Z,26.50
2023-02-23T19:27:37.392Z,29.60
2023-02-23T19:28:37.350Z,24.00
2023-02-23T19:29:37.305Z,24.20
2023-02-23T19:30:37.258Z,23.00
2023-02-23T19:31:37.468Z,23.30
2023-02-23T19:32:37.465Z,23.10
2023-02-23T19:33:37.327Z,24.80
2023-02-23T19:34:37.091Z,22.10
2023-02-23T19:35:37.033Z,25.40
2023-02-23T19:36:36.987Z,24.50
2023-02-23T19:37:36.962Z,26.60
2023-02-23T19:38:36.926Z,27.90
2023-02-23T19:39:36.858Z,24.20
2023-02-23T19:40:36.819Z,23.90
2023-02-23T19:41:36.771Z,29.00
2023-02-23T19:42:36.726Z,23.90
2023-02-23T19:43:36.678Z,24.50
2023-02-23T19:44:36.644Z,23.30
2023-02-23T19:45:36.621Z,25.00
2023-02-23T19:46:36.540Z,25.70
2023-02-23T19:47:36.494Z,24.40
2023-02-23T19:48:36.468Z,26.20
2023-02-23T19:49:36.408Z,26.00
2023-02-23T19:50:36.371Z,27.10
2023-02-23T19:51:36.313Z,28.80
2023-02-23T19:52:36.274Z,25.40
2023-02-23T19:53:36.229Z,26.00
2023-02-23T19:54:36.204Z,27.20
2023-02-23T19:55:36.136Z,27.30
2023-02-23T19:56:36.102Z,27.60
2023-02-23T19:57:36.053Z,27.50
2023-02-23T19:58:36.024Z,26.50
2023-02-23T19:59:35.961Z,29.20
2023-02-23T20:00:35.913Z,27.90
2023-02-23T20:01:35.868Z,26.30
2023-02-23T20:02:35.873Z,26.50
2023-02-23T20:03:35.782Z,29.70
2023-02-23T20:04:35.740Z,26.60
2023-02-23T20:05:35.796Z,23.80
2023-02-23T20:06:35.645Z,26.60
2023-02-23T20:07:35.603Z,24.10
2023-02-23T20:08:35.555Z,24.60
2023-02-23T20:09:35.507Z,28.40
2023-02-23T20:10:35.482Z,25.80
2023-02-23T20:11:35.418Z,27.20
2023-02-23T20:12:35.381Z,25.00
2023-02-23T20:13:35.326Z,29.30
2023-02-23T20:14:35.283Z,27.10
2023-02-23T20:15:35.237Z,26.80
2023-02-23T20:16:35.281Z,25.30
2023-02-23T20:17:35.175Z,27.70
2023-02-23T20:18:35.104Z,26.40
2023-02-23T20:19:35.059Z,27.50
2023-02-23T20:20:35.980Z,25.60
2023-02-23T20:21:35.037Z,24.70
2023-02-23T20:22:34.940Z,26.20
2023-02-23T20:23:34.873Z,27.10
2023-02-23T20:24:34.832Z,29.90
2023-02-23T20:25:34.785Z,29.80
2023-02-23T20:26:34.769Z,26.80
2023-02-23T20:27:34.716Z,29.30
2023-02-23T20:28:34.650Z,26.60
2023-02-23T20:29:34.609Z,25.60
2023-02-23T20:30:34.636Z,29.00
2023-02-23T20:31:34.573Z,28.40
2023-02-23T20:32:34.571Z,26.80
2023-02-23T20:33:34.437Z,26.80
2023-02-23T20:34:34.383Z,27.00
2023-02-23T20:35:34.336Z,28.40
2023-02-23T20:36:34.324Z,26.40
2023-02-23T20:37:34.247Z,28.80
2023-02-23T20:38:34.204Z,30.10
2023-02-23T20:39:34.158Z,29.40
2023-02-23T20:40:34.125Z,31.10
2023-02-23T20:41:34.068Z,27.90
2023-02-23T20:42:34.045Z,34.00
2023-02-23T20:43:33.979Z,27.90
2023-02-23T20:44:33.934Z,22.80
2023-02-23T20:45:33.902Z,21.80
2023-02-23T20:46:33.850Z,20.80
2023-02-23T20:47:33.825Z,18.60
2023-02-23T20:48:33.763Z,16.60
2023-02-23T20:49:33.710Z,13.80
2023-02-23T20:51:33.659Z,14.00
2023-02-23T20:52:33.582Z,16.10
2023-02-23T20:53:33.532Z,13.60
2023-02-23T20:56:33.399Z,14.10
2023-02-23T20:57:33.359Z,13.90
2023-02-23T20:58:33.334Z,14.70
2023-02-23T20:59:33.269Z,11.30
2023-02-23T21:00:33.281Z,15.20
2023-02-23T21:01:33.245Z,14.10
2023-02-23T21:02:33.152Z,17.70
2023-02-23T21:03:33.249Z,15.50
2023-02-23T21:04:33.094Z,17.00
2023-02-23T21:05:33.021Z,18.80
2023-02-23T21:06:32.983Z,21.70
2023-02-23T21:07:32.928Z,22.90
2023-02-23T21:08:32.863Z,22.30
2023-02-23T21:09:32.852Z,44.00
2023-02-23T21:10:32.792Z,49.20
2023-02-23T21:11:32.730Z,31.00
2023-02-23T21:12:32.698Z,29.10
2023-02-23T21:13:32.634Z,43.40
2023-02-23T21:14:34.508Z,27.70
2023-02-23T21:15:32.581Z,23.80
2023-02-23T21:16:32.549Z,20.40
2023-02-23T21:17:32.455Z,16.30
2023-02-23T21:18:32.505Z,16.40
2023-02-23T21:19:32.368Z,15.90
2023-02-23T21:20:32.316Z,20.90
2023-02-23T21:21:32.284Z,29.60
2023-02-23T21:22:32.247Z,26.60
2023-02-23T21:23:32.195Z,23.30
2023-02-23T21:24:32.139Z,33.70
2023-02-23T21:25:32.102Z,17.70
2023-02-23T21:26:32.061Z,15.40
2023-02-23T21:27:32.006Z,17.10
2023-02-23T21:28:31.976Z,16.80
2023-02-23T21:29:31.932Z,14.50
2023-02-23T21:30:31.888Z,16.60
2023-02-23T21:31:31.928Z,12.70
2023-02-23T21:32:31.960Z,21.00
2023-02-23T21:33:31.732Z,18.80
2023-02-23T21:34:31.709Z,20.70
2023-02-23T21:35:31.640Z,23.10
2023-02-23T21:36:31.594Z,22.80
2023-02-23T21:37:31.550Z,18.40
2023-02-23T21:38:31.524Z,21.90
2023-02-23T21:39:31.462Z,24.10
2023-02-23T21:40:31.411Z,25.20
2023-02-23T21:41:31.384Z,18.80
2023-02-23T21:42:31.327Z,26.00
2023-02-23T21:43:31.277Z,32.00
2023-02-23T21:44:31.247Z,34.40
2023-02-23T21:45:31.182Z,40.60
2023-02-23T21:46:31.300Z,27.90
2023-02-23T21:47:31.092Z,21.90
2023-02-23T21:48:31.044Z,21.50
2023-02-23T21:49:31.021Z,49.40
2023-02-23T21:50:30.957Z,35.30
2023-02-23T21:51:30.932Z,24.80
2023-02-23T21:52:30.890Z,24.40
2023-02-23T21:53:30.827Z,33.40
2023-02-23T21:54:30.792Z,34.60
2023-02-23T21:55:30.738Z,38.90
2023-02-23T21:56:30.700Z,38.20
2023-02-23T21:57:30.663Z,72.40
2023-02-23T21:58:30.589Z,51.30
2023-02-23T21:59:30.552Z,31.10
2023-02-23T22:00:30.529Z,20.30
2023-02-23T22:01:30.519Z,18.50
2023-02-23T22:02:30.562Z,24.00
2023-02-23T22:03:30.363Z,19.80
2023-02-23T22:04:30.342Z,20.20
2023-02-23T22:05:30.269Z,24.30
2023-02-23T22:06:30.221Z,23.10
2023-02-23T22:07:30.182Z,21.70
2023-02-23T22:08:30.147Z,20.00
2023-02-23T22:09:30.089Z,21.00
2023-02-23T22:10:30.045Z,16.20
2023-02-23T22:11:30.015Z,20.80
2023-02-23T22:12:29.971Z,19.00
2023-02-23T22:13:29.907Z,15.10
2023-02-23T22:14:29.871Z,16.80
2023-02-23T22:15:29.836Z,19.60
2023-02-23T22:16:29.874Z,20.00
2023-02-23T22:17:29.732Z,18.10
2023-02-23T22:18:29.696Z,16.30
2023-02-23T22:19:29.662Z,19.60
2023-02-23T22:20:29.591Z,19.70
2023-02-23T22:21:29.538Z,18.90
2023-02-23T22:22:29.515Z,19.40
2023-02-23T22:23:29.466Z,17.10
2023-02-23T22:24:29.431Z,18.10
2023-02-23T22:25:29.359Z,14.40
2023-02-23T22:26:29.309Z,12.80
2023-02-23T22:27:29.267Z,17.00
2023-02-23T22:28:29.220Z,16.50
2023-02-23T22:29:29.196Z,16.60
2023-02-23T22:30:29.129Z,20.00
2023-02-23T22:31:29.523Z,20.10
2023-02-23T22:32:29.255Z,18.70
2023-02-23T22:33:28.988Z,17.50
2023-02-23T22:34:28.965Z,21.30
2023-02-23T22:35:28.899Z,16.10
2023-02-23T22:36:28.873Z,21.60
2023-02-23T22:37:28.809Z,24.40
2023-02-23T22:38:28.777Z,16.30
2023-02-23T22:39:28.718Z,17.10
2023-02-23T22:40:28.685Z,22.00
2023-02-23T22:41:28.637Z,18.40
2023-02-23T22:42:28.579Z,15.10
2023-02-23T22:43:28.540Z,19.10
2023-02-23T22:44:28.484Z,17.70
2023-02-23T22:45:28.469Z,19.60
2023-02-23T22:46:28.438Z,15.30
2023-02-23T22:47:28.388Z,16.00
2023-02-23T22:48:28.382Z,15.10
2023-02-23T22:49:28.280Z,18.30
2023-02-23T22:50:28.228Z,20.30
2023-02-23T22:51:28.168Z,18.70
2023-02-23T22:52:28.116Z,24.10
2023-02-23T22:53:28.089Z,19.60
2023-02-23T22:54:28.028Z,20.10
2023-02-23T22:55:27.983Z,21.90
2023-02-23T22:56:27.933Z,20.20
2023-02-23T22:57:27.917Z,20.70
2023-02-23T22:58:27.861Z,16.60
2023-02-23T22:59:27.812Z,18.00
2023-02-23T23:00:27.748Z,18.10
2023-02-23T23:01:27.737Z,17.40
2023-02-23T23:02:27.670Z,19.20
2023-02-23T23:03:27.703Z,18.10
2023-02-23T23:04:27.640Z,17.70
2023-02-23T23:05:27.537Z,19.40
2023-02-23T23:06:27.489Z,18.80
2023-02-23T23:07:27.425Z,18.00
2023-02-23T23:08:27.385Z,14.60
2023-02-23T23:09:27.331Z,18.30
2023-02-23T23:10:27.319Z,21.20
2023-02-23T23:11:27.247Z,13.20
2023-02-23T23:12:27.192Z,20.80
2023-02-23T23:13:27.166Z,18.70
2023-02-23T23:14:27.117Z,20.80
2023-02-23T23:15:27.056Z,20.20
2023-02-23T23:16:32.070Z,20.20
2023-02-23T23:17:27.062Z,16.90
2023-02-23T23:18:26.924Z,21.30
2023-02-23T23:19:26.893Z,16.80
2023-02-23T23:20:26.827Z,16.60
2023-02-23T23:21:26.776Z,17.60
2023-02-23T23:22:26.748Z,17.80
2023-02-23T23:24:26.637Z,20.50
2023-02-23T23:25:28.256Z,18.80
2023-02-23T23:26:26.545Z,18.00
2023-02-23T23:27:26.505Z,21.40
2023-02-23T23:28:26.452Z,21.20
2023-02-23T23:29:26.432Z,13.70
2023-02-23T23:30:26.372Z,19.30
2023-02-23T23:31:26.549Z,21.30
2023-02-23T23:32:26.442Z,23.00
2023-02-23T23:33:26.246Z,22.50
2023-02-23T23:34:26.175Z,18.60
2023-02-23T23:35:26.178Z,20.20
2023-02-23T23:36:26.110Z,20.60
2023-02-23T23:37:26.046Z,18.90
2023-02-23T23:38:26.100Z,18.30
2023-02-23T23:39:26.289Z,18.30
2023-02-23T23:40:25.929Z,19.60
2023-02-23T23:41:25.879Z,18.30
2023-02-23T23:42:25.814Z,24.50
2023-02-23T23:43:25.791Z,18.40
2023-02-23T23:44:25.722Z,16.50
2023-02-23T23:45:26.005Z,17.60
2023-02-23T23:46:25.633Z,23.90
2023-02-23T23:47:25.609Z,19.10
2023-02-23T23:48:25.538Z,27.00
2023-02-23T23:49:25.683Z,20.20
2023-02-23T23:50:25.464Z,19.60
2023-02-23T23:51:25.419Z,16.90
2023-02-23T23:52:25.376Z,23.80
2023-02-23T23:53:25.330Z,15.30
2023-02-23T23:54:25.280Z,17.30
2023-02-23T23:55:25.229Z,21.10
2023-02-23T23:56:25.172Z,23.30
2023-02-23T23:57:25.116Z,21.10
2023-02-23T23:58:25.091Z,19.60
